Main page
METAR-TAF:

METAR-TAF

Airports :

N'Djamena International Airport

N'Djamena, Chad

latitude: 12-08N, longitude: 015-02E, elevation: 295 m

Current weather observation

The report was made 45 minutes ago, at 22:00 UTC
Wind 6 kt from the South
Temperature 33°C
Humidity 44%
Pressure 1008 hPa
Visibility 10 km or more
no clouds below 1500 m and no cumulonimbus

METAR: FTTJ 012200Z 17006KT CAVOK 33/19 Q1008 NOSIG

Time: 23:45 (22:45 UTC)

Forecast

The report was made 5 hours and 45 minutes ago, at 17:00 UTC
Forecast valid from 01 at 18 UTC to 02 at 24 UTC
Wind 4 kt from variable directions
Visibility: 8000 m
Few clouds at a height of 4000 ft
Temporary
from 02 at 00 UTC to 02 at 06 UTC
Visibility: 3000 m
widespread dust
Temporary
from 02 at 12 UTC to 02 at 18 UTC
Wind 10 kt from the South/Southeast
Few clouds at a height of 4000 ft

TAF: FTTJ 011700Z 0118/0224 VRB04KT 8000 FEW040 TEMPO 0200/0206 3000 DU TEMPO 0212/0218 16010KT FEW040

Weather observations and forecasts of more than 4000 airports (METAR and TAF reports).

The available stations are represented by yellow and red dots on the map.

Hover mouse over dot to see the name of the station.

Then click to see weather observations and forecasts.

To change the map : click on the green buttons with a black cross to zoom in, on the green button with a dash to zoom out, or on the green arrows for adjacent maps.


METAR-TAF: